createdAt,value
2023-01-20T00:03:14.115Z,99796.59
2023-01-20T00:08:15.412Z,99799.03
2023-01-20T00:13:16.718Z,99809.53
2023-01-20T00:18:18.025Z,99801.13
2023-01-20T00:23:19.338Z,99813.59
2023-01-20T00:28:20.661Z,99826.19
2023-01-20T00:33:21.965Z,99833.16
2023-01-20T00:38:23.305Z,99836.38
2023-01-20T00:43:25.068Z,99839.31
2023-01-20T00:48:26.404Z,99846.03
2023-01-20T00:53:27.789Z,99845.47
2023-01-20T00:58:29.229Z,99856.66
2023-01-20T01:03:30.602Z,99859.00
2023-01-20T01:08:32.875Z,99860.41
2023-01-20T01:13:34.622Z,99869.94
2023-01-20T01:18:35.930Z,99867.97
2023-01-20T01:23:37.319Z,99876.50
2023-01-20T01:28:39.751Z,99877.19
2023-01-20T01:33:41.203Z,99888.75
2023-01-20T01:38:43.084Z,99896.59
2023-01-20T01:44:03.747Z,99894.78
2023-01-20T01:49:11.076Z,99893.78
2023-01-20T01:54:16.947Z,99891.25
2023-01-20T01:59:18.902Z,99905.25
2023-01-20T02:04:23.175Z,99906.50
2023-01-20T02:09:26.846Z,99912.59
2023-01-20T02:14:34.264Z,99912.75
2023-01-20T02:19:35.551Z,99932.31
2023-01-20T02:25:00.127Z,99934.59
2023-01-20T02:30:26.405Z,99942.09
2023-01-20T02:35:36.932Z,99945.91
2023-01-20T02:41:07.082Z,99957.47
2023-01-20T02:46:14.226Z,99955.94
2023-01-20T02:51:25.557Z,99958.50
2023-01-20T02:56:29.114Z,99963.94
2023-01-20T03:01:36.242Z,99967.31
2023-01-20T03:06:43.782Z,99981.84
2023-01-20T03:11:53.652Z,99981.16
2023-01-20T03:16:55.203Z,99992.00
2023-01-20T03:21:57.343Z,99995.28
2023-01-20T03:26:59.424Z,100000.91
2023-01-20T03:32:03.319Z,100001.88
2023-01-20T03:37:05.440Z,100007.03
2023-01-20T03:42:13.879Z,100010.94
2023-01-20T03:47:33.409Z,100016.69
2023-01-20T03:52:47.126Z,100011.19
2023-01-20T03:58:04.645Z,100020.31
2023-01-20T04:03:12.734Z,100015.00
2023-01-20T04:08:17.481Z,100040.28
2023-01-20T04:13:18.845Z,100032.03
2023-01-20T04:18:23.034Z,100039.66
2023-01-20T04:23:30.955Z,100042.13
2023-01-20T04:28:32.488Z,100035.31
2023-01-20T04:33:37.221Z,100049.06
2023-01-20T04:38:38.537Z,100056.41
2023-01-20T04:43:44.127Z,100054.06
2023-01-20T04:48:46.252Z,100056.72
2023-01-20T04:53:47.598Z,100047.81
2023-01-20T04:58:49.033Z,100061.84
2023-01-20T05:03:50.355Z,100068.47
2023-01-20T05:08:51.952Z,100067.47
2023-01-20T05:13:53.313Z,100061.31
2023-01-20T05:18:54.624Z,100076.59
2023-01-20T05:23:57.215Z,100081.97
2023-01-20T05:28:58.590Z,100084.75
2023-01-20T05:34:00.059Z,100080.44
2023-01-20T05:39:01.663Z,100090.69
2023-01-20T05:44:03.092Z,100091.78
2023-01-20T05:49:04.445Z,100108.44
2023-01-20T05:54:05.861Z,100120.06
2023-01-20T05:59:07.771Z,100129.44
2023-01-20T06:04:09.392Z,100124.84
2023-01-20T06:09:10.969Z,100143.63
2023-01-20T06:14:12.352Z,100141.53
2023-01-20T06:19:13.816Z,100140.56
2023-01-20T06:24:15.167Z,100154.97
2023-01-20T06:29:16.617Z,100151.66
2023-01-20T06:34:17.935Z,100163.81
2023-01-20T06:39:19.309Z,100177.78
2023-01-20T06:44:20.677Z,100171.91
2023-01-20T06:49:21.982Z,100187.69
2023-01-20T06:54:23.456Z,100199.88
2023-01-20T06:59:24.780Z,100200.06
2023-01-20T07:04:26.165Z,100193.53
2023-01-20T07:09:27.524Z,100206.47
2023-01-20T07:14:28.848Z,100205.94
2023-01-20T07:19:30.183Z,100211.72
2023-01-20T07:24:31.619Z,100215.91
2023-01-20T07:29:32.962Z,100226.53
2023-01-20T07:34:34.262Z,100224.28
2023-01-20T07:39:36.373Z,100231.66
2023-01-20T07:44:37.676Z,100239.69
2023-01-20T07:49:39.008Z,100247.78
2023-01-20T07:54:40.389Z,100252.78
2023-01-20T07:59:41.725Z,100250.44
2023-01-20T08:04:43.189Z,100263.13
2023-01-20T08:09:44.590Z,100267.66
2023-01-20T08:14:45.918Z,100267.84
2023-01-20T08:19:47.325Z,100263.78
2023-01-20T08:24:48.657Z,100269.50
2023-01-20T08:29:49.978Z,100277.88
2023-01-20T08:34:51.294Z,100284.63
2023-01-20T08:39:52.661Z,100289.72
2023-01-20T08:44:54.062Z,100289.94
2023-01-20T08:49:55.443Z,100293.69
2023-01-20T08:54:58.652Z,100297.91
2023-01-20T09:00:00.039Z,100306.06
2023-01-20T09:05:01.430Z,100308.34
2023-01-20T09:10:04.347Z,100318.38
2023-01-20T09:15:07.501Z,100322.38
2023-01-20T09:20:09.844Z,100313.16
2023-01-20T09:25:11.406Z,100332.75
2023-01-20T09:30:13.053Z,100334.78
2023-01-20T09:35:14.929Z,100348.00
2023-01-20T09:40:42.723Z,100349.34
2023-01-20T09:45:56.735Z,100342.31
2023-01-20T09:51:22.120Z,100340.25
2023-01-20T09:56:27.561Z,100346.34
2023-01-20T10:01:52.758Z,100343.84
2023-01-20T10:07:33.391Z,100346.97
2023-01-20T10:12:42.660Z,100345.69
2023-01-20T10:18:13.981Z,100357.66
2023-01-20T10:23:21.555Z,100346.28
2023-01-20T10:28:32.165Z,100353.75
2023-01-20T10:33:45.313Z,100359.09
2023-01-20T10:38:54.179Z,100352.00
2023-01-20T10:43:57.752Z,100350.44
2023-01-20T10:49:31.845Z,100355.22
2023-01-20T10:54:46.184Z,100350.47
2023-01-20T10:59:55.525Z,100362.78
2023-01-20T11:05:23.994Z,100361.34
2023-01-20T11:10:29.997Z,100359.66
2023-01-20T11:15:35.419Z,100359.31
2023-01-20T11:20:37.104Z,100359.72
2023-01-20T11:25:39.188Z,100350.75
2023-01-20T11:30:40.708Z,100365.91
2023-01-20T11:36:07.246Z,100363.94
2023-01-20T11:41:20.947Z,100359.16
2023-01-20T11:46:29.942Z,100369.69
2023-01-20T11:51:31.412Z,100364.06
2023-01-20T11:56:41.448Z,100369.25
2023-01-20T12:01:51.723Z,100370.38
2023-01-20T12:07:03.444Z,100372.19
2023-01-20T12:12:10.341Z,100371.09
2023-01-20T12:17:17.356Z,100373.63
2023-01-20T12:22:26.187Z,100372.72
2023-01-20T12:27:28.158Z,100380.03
2023-01-20T12:32:31.467Z,100383.97
2023-01-20T12:37:47.083Z,100373.88
2023-01-20T12:43:16.268Z,100380.34
2023-01-20T12:48:49.916Z,100376.56
2023-01-20T12:54:10.055Z,100377.00
2023-01-20T12:59:39.606Z,100375.72
2023-01-20T13:05:04.749Z,100383.72
2023-01-20T13:10:25.700Z,100383.28
2023-01-20T13:15:34.355Z,100388.75
2023-01-20T13:20:40.497Z,100396.75
2023-01-20T13:25:46.852Z,100402.09
2023-01-20T13:30:54.207Z,100388.34
2023-01-20T13:35:56.603Z,100397.88
2023-01-20T13:41:06.113Z,100395.91
2023-01-20T13:46:15.111Z,100396.22
2023-01-20T13:51:19.180Z,100395.34
2023-01-20T13:56:26.234Z,100402.63
2023-01-20T14:01:28.472Z,100405.16
2023-01-20T14:06:30.373Z,100408.22
2023-01-20T14:11:31.829Z,100414.44
2023-01-20T14:16:36.235Z,100409.09
2023-01-20T14:21:41.706Z,100411.91
2023-01-20T14:26:43.032Z,100417.81
2023-01-20T14:31:46.160Z,100416.66
2023-01-20T14:36:47.920Z,100422.69
2023-01-20T14:41:54.868Z,100422.31
2023-01-20T14:47:01.350Z,100431.53
2023-01-20T14:52:04.355Z,100434.06
2023-01-20T14:57:40.899Z,100439.41
2023-01-20T15:03:11.022Z,100442.38
2023-01-20T15:08:26.005Z,100441.94
2023-01-20T15:13:29.733Z,100454.69
2023-01-20T15:18:31.156Z,100451.47
2023-01-20T15:23:38.838Z,100456.41
2023-01-20T15:28:44.386Z,100455.69
2023-01-20T15:33:45.735Z,100460.19
2023-01-20T15:38:47.333Z,100462.69
2023-01-20T15:43:51.102Z,100464.38
2023-01-20T15:48:52.449Z,100467.75
2023-01-20T15:53:53.837Z,100476.00
2023-01-20T15:58:56.055Z,100477.13
2023-01-20T16:03:58.417Z,100490.31
2023-01-20T16:09:12.663Z,100493.09
2023-01-20T16:14:14.059Z,100502.06
2023-01-20T16:19:15.978Z,100497.13
2023-01-20T16:24:17.297Z,100514.25
2023-01-20T16:29:18.674Z,100513.38
2023-01-20T16:34:20.037Z,100519.84
2023-01-20T16:39:21.350Z,100518.13
2023-01-20T16:44:22.659Z,100525.16
2023-01-20T16:49:23.998Z,100531.56
2023-01-20T16:54:25.378Z,100536.91
2023-01-20T16:59:26.697Z,100532.56
2023-01-20T17:04:29.358Z,100538.16
2023-01-20T17:09:30.671Z,100537.72
2023-01-20T17:14:32.173Z,100548.06
2023-01-20T17:19:33.553Z,100542.41
2023-01-20T17:24:35.020Z,100560.72
2023-01-20T17:29:36.677Z,100556.94
2023-01-20T17:34:37.995Z,100559.47
2023-01-20T17:39:39.450Z,100565.75
2023-01-20T17:44:40.769Z,100564.09
2023-01-20T17:49:42.145Z,100574.38
2023-01-20T17:54:43.484Z,100586.69
2023-01-20T17:59:44.828Z,100596.38
2023-01-20T18:04:46.234Z,100589.44
2023-01-20T18:09:47.542Z,100593.78
2023-01-20T18:14:48.856Z,100597.44
2023-01-20T18:19:50.472Z,100609.19
2023-01-20T18:24:51.901Z,100616.81
2023-01-20T18:29:53.235Z,100609.22
2023-01-20T18:34:54.703Z,100623.66
2023-01-20T18:39:56.103Z,100615.19
2023-01-20T18:44:57.425Z,100619.41
2023-01-20T18:49:58.734Z,100629.47
2023-01-20T18:55:00.123Z,100633.59
2023-01-20T19:00:01.602Z,100644.03
2023-01-20T19:05:03.053Z,100648.78
2023-01-20T19:10:04.693Z,100644.22
2023-01-20T19:15:06.690Z,100652.81
2023-01-20T19:20:09.182Z,100659.34
2023-01-20T19:25:10.844Z,100651.13
2023-01-20T19:30:12.979Z,100655.59
2023-01-20T19:35:14.331Z,100660.19
2023-01-20T19:40:16.452Z,100666.22
2023-01-20T19:45:18.521Z,100672.25
2023-01-20T19:50:19.875Z,100682.78
2023-01-20T19:55:21.210Z,100684.34
2023-01-20T20:00:22.675Z,100690.50
2023-01-20T20:05:24.012Z,100701.97
2023-01-20T20:10:25.343Z,100702.72
2023-01-20T20:15:26.763Z,100709.69
2023-01-20T20:20:28.097Z,100713.34
2023-01-20T20:25:29.461Z,100715.25
2023-01-20T20:30:30.869Z,100719.72
2023-01-20T20:35:35.403Z,100721.16
2023-01-20T20:40:36.708Z,100725.41
2023-01-20T20:45:38.157Z,100732.03
2023-01-20T20:50:39.464Z,100738.22
2023-01-20T20:55:41.887Z,100734.56
2023-01-20T21:00:43.240Z,100743.03
2023-01-20T21:05:48.847Z,100743.78
2023-01-20T21:10:50.546Z,100749.69
2023-01-20T21:15:56.432Z,100758.41
2023-01-20T21:20:59.961Z,100761.06
2023-01-20T21:26:02.967Z,100766.97
2023-01-20T21:31:12.816Z,100767.69
2023-01-20T21:36:14.699Z,100770.00
2023-01-20T21:41:17.151Z,100784.97
2023-01-20T21:46:19.077Z,100772.19
2023-01-20T21:51:46.305Z,100786.53
2023-01-20T21:56:48.449Z,100786.81
2023-01-20T22:01:50.039Z,100798.41
2023-01-20T22:06:51.382Z,100802.75
2023-01-20T22:11:52.712Z,100806.97
2023-01-20T22:16:54.097Z,100820.78
2023-01-20T22:21:56.762Z,100828.13
2023-01-20T22:26:58.242Z,100828.38
2023-01-20T22:32:02.246Z,100834.16
2023-01-20T22:37:03.602Z,100851.56
2023-01-20T22:42:05.101Z,100845.66
2023-01-20T22:47:09.666Z,100865.72
2023-01-20T22:52:10.983Z,100859.56
2023-01-20T22:57:13.022Z,100872.47
2023-01-20T23:02:14.522Z,100876.94
2023-01-20T23:07:15.850Z,100868.59
2023-01-20T23:12:17.224Z,100875.50
2023-01-20T23:17:18.541Z,100883.72
2023-01-20T23:22:20.413Z,100892.53
2023-01-20T23:27:21.796Z,100896.78
2023-01-20T23:32:23.844Z,100898.81
2023-01-20T23:37:25.178Z,100914.78
2023-01-20T23:42:26.535Z,100917.66
2023-01-20T23:47:27.887Z,100928.28
2023-01-20T23:52:29.302Z,100938.06
2023-01-20T23:57:30.636Z,100935.41
